Time;durP1;ratioP1;P1;durP2;ratioP2;P2;SDS_P1;SDS_P2;PMS_P1;PMS_P2;Temp;Humidity;BMP_temperature;BMP_pressure;BME280_temperature;BME280_humidity;BME280_pressure;Samples;Min_cycle;Max_cycle;Signal;HPM_P1;HPM_P2
2022/01/10 00:00:34;;;;;;;50.28;16.40;;;-1.10;99.90;;;;;;4954859;29;20031;-89
2022/01/10 00:03:01;;;;;;;46.92;18.02;;;-1.10;99.90;;;;;;4955202;29;20023;-88
2022/01/10 00:05:27;;;;;;;52.17;19.10;;;-1.00;99.90;;;;;;4938897;29;20074;-88
2022/01/10 00:07:53;;;;;;;49.53;17.70;;;-1.00;99.90;;;;;;4939159;29;20476;-89
2022/01/10 00:10:19;;;;;;;37.65;16.13;;;-1.10;99.90;;;;;;4938393;29;20078;-88
2022/01/10 00:12:48;;;;;;;63.22;16.90;;;-1.00;99.90;;;;;;4938688;29;20038;-88
2022/01/10 00:15:16;;;;;;;45.03;16.13;;;-1.00;99.90;;;;;;4955730;29;20031;-88
2022/01/10 00:17:43;;;;;;;53.92;16.65;;;-0.90;99.90;;;;;;4956219;28;20502;-88
2022/01/10 00:20:11;;;;;;;51.03;18.13;;;-0.90;99.90;;;;;;4942211;29;20027;-88
2022/01/10 00:22:37;;;;;;;61.50;19.00;;;-0.90;99.90;;;;;;4942153;29;20032;-88
2022/01/10 00:25:04;;;;;;;45.42;16.92;;;-1.00;99.90;;;;;;4958436;29;20046;-88
2022/01/10 00:27:46;;;;;;;49.90;17.17;;;-0.90;99.90;;;;;;4958308;28;20031;-88
2022/01/10 00:30:13;;;;;;;55.22;15.27;;;-0.90;99.90;;;;;;4942075;29;20079;-88
2022/01/10 00:32:41;;;;;;;41.75;16.20;;;-0.80;99.90;;;;;;4926434;29;20848;-86
2022/01/10 00:35:08;;;;;;;40.25;15.45;;;-0.80;99.90;;;;;;4941820;29;20497;-88
2022/01/10 00:37:54;;;;;;;55.05;17.13;;;-0.70;99.90;;;;;;4941912;29;20027;-88
2022/01/10 00:40:20;;;;;;;43.40;15.20;;;-0.60;99.90;;;;;;4959256;29;20038;-88
2022/01/10 00:42:54;;;;;;;41.88;14.27;;;-0.60;99.90;;;;;;4957668;29;20415;-86
2022/01/10 00:45:25;;;;;;;55.90;15.85;;;-0.50;99.90;;;;;;4957437;29;20027;-86
2022/01/10 00:47:55;;;;;;;47.60;14.85;;;-0.60;99.90;;;;;;4958737;29;20483;-85
2022/01/10 00:50:24;;;;;;;41.60;14.73;;;-0.50;99.90;;;;;;4941844;29;20031;-86
2022/01/10 00:52:50;;;;;;;58.08;17.33;;;-0.50;99.90;;;;;;4941221;29;20027;-85
2022/01/10 00:55:16;;;;;;;54.60;15.98;;;-0.50;99.90;;;;;;4940890;29;20106;-86
2022/01/10 00:57:42;;;;;;;46.20;16.35;;;-0.40;99.90;;;;;;4957367;28;20039;-86
2022/01/10 01:00:11;;;;;;;51.00;15.98;;;-0.40;99.90;;;;;;4942025;29;20027;-85
2022/01/10 01:02:37;;;;;;;44.17;14.82;;;-0.40;99.90;;;;;;4941302;29;20066;-85
2022/01/10 01:05:06;;;;;;;43.42;16.02;;;-0.40;99.90;;;;;;4941642;29;20035;-86
2022/01/10 01:07:33;;;;;;;39.90;15.25;;;-0.50;99.90;;;;;;4958368;29;20041;-86
2022/01/10 01:12:52;;;;;;;44.33;14.27;;;-0.40;99.90;;;;;;4957359;29;20035;-86
2022/01/10 01:15:23;;;;;;;40.42;14.05;;;-0.50;99.90;;;;;;4956942;29;20447;-86
2022/01/10 01:18:18;;;;;;;43.40;15.77;;;-0.50;99.90;;;;;;4941253;29;20035;-86
2022/01/10 01:24:06;;;;;;;52.47;15.35;;;-0.50;99.90;;;;;;4958287;29;20034;-86
2022/01/10 01:26:44;;;;;;;45.30;15.97;;;-0.50;99.90;;;;;;4941714;29;20032;-88
2022/01/10 01:29:13;;;;;;;60.95;18.45;;;-0.50;99.90;;;;;;4940903;29;20267;-88
2022/01/10 01:31:40;;;;;;;48.03;16.80;;;-0.50;99.90;;;;;;4941108;29;20038;-88
2022/01/10 01:34:06;;;;;;;47.13;16.67;;;-0.50;99.90;;;;;;4957005;29;20031;-88
2022/01/10 01:36:33;;;;;;;51.33;17.52;;;-0.50;99.90;;;;;;4940378;29;20023;-89
2022/01/10 01:38:59;;;;;;;43.15;15.98;;;-0.50;99.90;;;;;;4956730;29;20075;-88
2022/01/10 01:43:58;;;;;;;55.28;16.52;;;-0.50;99.90;;;;;;4956804;29;20045;-88
2022/01/10 01:46:25;;;;;;;46.25;15.85;;;-0.50;99.90;;;;;;4956666;29;20082;-88
2022/01/10 01:48:52;;;;;;;48.38;16.45;;;-0.50;99.90;;;;;;4940703;29;20127;-88
2022/01/10 01:51:21;;;;;;;58.03;16.80;;;-0.50;99.90;;;;;;4940593;29;20487;-88
2022/01/10 01:53:48;;;;;;;49.30;16.80;;;-0.50;99.90;;;;;;4956295;29;20282;-88
2022/01/10 01:56:16;;;;;;;56.17;16.33;;;-0.40;99.90;;;;;;4956460;29;20035;-88
2022/01/10 01:58:43;;;;;;;48.20;16.85;;;-0.40;99.90;;;;;;4940711;29;20078;-88
2022/01/10 02:01:11;;;;;;;56.25;17.23;;;-0.40;99.90;;;;;;4940600;29;20027;-89
2022/01/10 02:03:38;;;;;;;48.05;16.33;;;-0.40;99.90;;;;;;4940637;29;20545;-86
2022/01/10 02:06:06;;;;;;;53.38;16.85;;;-0.40;99.90;;;;;;4940003;29;20062;-86
2022/01/10 02:08:37;;;;;;;49.53;15.50;;;-0.50;99.90;;;;;;4955537;29;20038;-86
2022/01/10 02:11:04;;;;;;;46.70;15.65;;;-0.50;99.90;;;;;;4939795;29;20031;-86
2022/01/10 02:13:31;;;;;;;49.05;16.45;;;-0.50;99.90;;;;;;4940029;29;20068;-86
2022/01/10 02:16:06;;;;;;;42.60;15.77;;;-0.50;99.90;;;;;;4956130;29;20050;-86
2022/01/10 02:18:37;;;;;;;53.85;16.15;;;-0.50;99.90;;;;;;4940358;29;20030;-86
2022/01/10 02:21:05;;;;;;;50.80;16.70;;;-0.60;99.90;;;;;;4940690;29;20039;-86
2022/01/10 02:23:33;;;;;;;48.10;16.52;;;-0.50;99.90;;;;;;4940060;29;20056;-86
2022/01/10 02:26:39;;;;;;;44.53;16.33;;;-0.50;99.90;;;;;;4954365;29;20106;-88
2022/01/10 02:29:07;;;;;;;43.88;15.02;;;-0.50;99.90;;;;;;4955951;29;20035;-88
2022/01/10 02:31:55;;;;;;;50.42;15.70;;;-0.60;99.90;;;;;;4940335;29;20399;-88
2022/01/10 02:34:24;;;;;;;42.60;15.25;;;-0.60;99.90;;;;;;4939735;29;20079;-88
2022/01/10 02:36:53;;;;;;;46.58;14.98;;;-0.60;99.90;;;;;;4956138;29;20122;-88
2022/01/10 02:39:21;;;;;;;46.22;15.85;;;-0.60;99.90;;;;;;4955167;28;20034;-88
2022/01/10 02:41:46;;;;;;;50.38;15.60;;;-0.60;99.90;;;;;;4955414;29;20038;-88
2022/01/10 02:44:15;;;;;;;45.13;14.10;;;-0.60;99.90;;;;;;4940066;29;20039;-86
2022/01/10 02:46:41;;;;;;;37.90;14.23;;;-0.50;99.90;;;;;;4939655;29;20118;-86
2022/01/10 02:49:33;;;;;;;51.75;16.77;;;-0.50;99.90;;;;;;4939844;29;20114;-86
2022/01/10 02:52:00;;;;;;;45.60;16.00;;;-0.60;99.90;;;;;;4955828;28;20027;-86
2022/01/10 02:54:34;;;;;;;43.80;14.82;;;-0.60;99.90;;;;;;4924036;29;20035;-86
2022/01/10 02:57:07;;;;;;;42.50;14.90;;;-0.60;99.90;;;;;;4954616;29;20147;-86
2022/01/10 02:59:36;;;;;;;60.08;16.40;;;-0.60;99.90;;;;;;4939589;29;20762;-86
2022/01/10 03:02:03;;;;;;;47.35;14.60;;;-0.60;99.90;;;;;;4955398;29;20031;-86
2022/01/10 03:04:29;;;;;;;46.17;15.23;;;-0.60;99.90;;;;;;4955439;29;20058;-86
2022/01/10 03:06:54;;;;;;;51.83;15.43;;;-0.50;99.90;;;;;;4939549;29;20035;-85
2022/01/10 03:09:20;;;;;;;49.67;16.15;;;-0.50;99.90;;;;;;4955401;29;20037;-86
2022/01/10 03:11:46;;;;;;;37.33;14.50;;;-0.50;99.90;;;;;;4954862;29;20440;-86
2022/01/10 03:14:13;;;;;;;39.85;15.60;;;-0.50;99.90;;;;;;4955311;29;20087;-85
2022/01/10 03:16:39;;;;;;;49.05;15.57;;;-0.50;99.90;;;;;;4955309;29;20067;-86
2022/01/10 03:19:05;;;;;;;36.83;14.27;;;-0.50;99.90;;;;;;4939456;29;20024;-86
2022/01/10 03:21:30;;;;;;;46.88;14.40;;;-0.50;99.90;;;;;;4939136;29;20042;-86
2022/01/10 03:23:58;;;;;;;45.78;15.00;;;-0.50;99.90;;;;;;4939052;29;20027;-85
2022/01/10 03:26:26;;;;;;;44.08;15.32;;;-0.50;99.90;;;;;;4955081;29;20031;-86
2022/01/10 03:28:59;;;;;;;51.05;16.10;;;-0.50;99.90;;;;;;4939309;29;20038;-86
2022/01/10 03:31:25;;;;;;;48.10;15.10;;;-0.50;99.90;;;;;;4955070;29;20042;-86
2022/01/10 03:33:51;;;;;;;38.40;13.73;;;-0.50;99.90;;;;;;4939053;29;20055;-85
2022/01/10 03:36:44;;;;;;;45.90;13.93;;;-0.50;99.90;;;;;;4954789;29;20079;-86
2022/01/10 03:39:12;;;;;;;50.78;15.25;;;-0.50;99.90;;;;;;4954766;29;20027;-86
2022/01/10 03:41:38;;;;;;;52.45;14.35;;;-0.40;99.90;;;;;;4954569;29;20035;-86
2022/01/10 03:44:05;;;;;;;53.10;14.38;;;-0.50;99.90;;;;;;4954896;29;20023;-86
2022/01/10 03:46:33;;;;;;;49.03;15.52;;;-0.50;99.90;;;;;;4939412;29;20059;-86
2022/01/10 03:49:04;;;;;;;42.95;15.13;;;-0.50;99.90;;;;;;4938810;29;20157;-85
2022/01/10 03:51:31;;;;;;;;;;;-0.50;99.90;;;;;;4940606;29;20027;-86
2022/01/10 03:53:56;;;;;;;45.88;13.70;;;-0.50;99.90;;;;;;4942389;29;19918;-86
2022/01/10 03:56:27;;;;;;;46.33;14.10;;;-0.50;99.90;;;;;;4958322;29;20039;-86
2022/01/10 03:58:53;;;;;;;32.00;13.68;;;-0.50;99.90;;;;;;4942847;29;20121;-86
2022/01/10 04:01:21;;;;;;;54.78;13.15;;;-0.50;99.90;;;;;;4958519;29;20027;-85
2022/01/10 04:03:52;;;;;;;54.70;15.40;;;-0.50;99.90;;;;;;4957639;28;20051;-85
2022/01/10 04:06:18;;;;;;;42.13;12.77;;;-0.40;99.90;;;;;;4958452;29;20035;-85
2022/01/10 04:08:44;;;;;;;44.92;15.13;;;-0.30;99.90;;;;;;4942721;29;20086;-86
2022/01/10 04:11:10;;;;;;;44.22;15.20;;;-0.40;99.90;;;;;;4957424;29;20090;-86
2022/01/10 04:13:36;;;;;;;40.53;14.88;;;-0.40;99.90;;;;;;4942446;29;20065;-85
2022/01/10 04:16:03;;;;;;;40.65;14.90;;;-0.30;99.90;;;;;;4942529;29;20082;-85
2022/01/10 04:18:28;;;;;;;47.10;14.98;;;-0.30;99.90;;;;;;4942132;29;20807;-86
2022/01/10 04:20:54;;;;;;;50.03;17.77;;;-0.40;99.90;;;;;;4958038;29;20027;-86
2022/01/10 04:23:21;;;;;;;53.95;15.05;;;-0.30;99.90;;;;;;4957848;29;20427;-85
2022/01/10 04:25:47;;;;;;;45.25;14.25;;;-0.40;99.90;;;;;;4958051;29;20039;-86
2022/01/10 04:28:13;;;;;;;42.55;13.95;;;-0.40;99.90;;;;;;4957744;29;20479;-85
2022/01/10 04:30:39;;;;;;;46.83;13.40;;;-0.40;99.90;;;;;;4942032;29;20039;-86
2022/01/10 04:33:16;;;;;;;44.90;12.68;;;-0.40;99.90;;;;;;4957473;29;20034;-85
2022/01/10 04:35:42;;;;;;;44.55;14.23;;;-0.30;99.90;;;;;;4957922;29;20034;-85
2022/01/10 04:38:10;;;;;;;42.88;13.18;;;-0.30;99.90;;;;;;4957929;29;20035;-85
2022/01/10 04:40:36;;;;;;;50.85;14.48;;;-0.30;99.90;;;;;;4941721;29;20027;-86
2022/01/10 04:43:02;;;;;;;57.10;15.40;;;-0.30;99.90;;;;;;4957338;29;20031;-86
2022/01/10 04:45:28;;;;;;;55.88;15.10;;;-0.40;99.90;;;;;;4941185;29;20059;-88
2022/01/10 04:47:56;;;;;;;52.40;15.20;;;-0.50;99.90;;;;;;4941591;29;20054;-88
2022/01/10 04:52:51;;;;;;;46.83;13.88;;;-0.60;99.90;;;;;;4957823;29;20122;-88
2022/01/10 04:55:19;;;;;;;42.67;13.88;;;-0.60;99.90;;;;;;4941477;29;20399;-88
2022/01/10 04:57:45;;;;;;;41.22;13.32;;;-0.70;99.90;;;;;;4941387;29;20447;-88
2022/01/10 05:00:14;;;;;;;65.22;13.60;;;-0.70;99.90;;;;;;4941347;29;20023;-88
2022/01/10 05:02:47;;;;;;;53.63;12.95;;;-0.70;99.90;;;;;;4941312;28;20042;-88
2022/01/10 05:05:13;;;;;;;53.10;13.82;;;-0.90;99.90;;;;;;4941463;29;20468;-88
2022/01/10 05:07:39;;;;;;;48.70;13.70;;;-1.00;99.90;;;;;;4941461;29;20038;-88
2022/01/10 05:10:06;;;;;;;54.17;15.18;;;-1.10;99.90;;;;;;4957180;29;20118;-88
2022/01/10 05:12:35;;;;;;;43.17;14.05;;;-1.20;99.90;;;;;;4940890;29;20050;-88
2022/01/10 05:15:00;;;;;;;42.72;15.38;;;-1.20;99.90;;;;;;4956656;29;20027;-88
2022/01/10 05:17:26;;;;;;;54.92;14.40;;;-1.20;99.90;;;;;;4957624;29;20035;-88
2022/01/10 05:19:53;;;;;;;41.72;13.00;;;-1.20;99.90;;;;;;4957650;29;20045;-87
2022/01/10 05:22:19;;;;;;;41.92;14.02;;;-1.30;99.90;;;;;;4957792;29;20110;-85
2022/01/10 05:24:45;;;;;;;51.38;13.65;;;-1.30;99.90;;;;;;4957208;29;20062;-85
2022/01/10 05:27:11;;;;;;;56.08;14.82;;;-1.30;99.90;;;;;;4957422;29;20028;-85
2022/01/10 05:29:36;;;;;;;49.10;14.32;;;-1.40;99.90;;;;;;4941530;29;20248;-85
2022/01/10 05:32:03;;;;;;;48.80;14.52;;;-1.50;99.90;;;;;;4941625;29;20081;-85
2022/01/10 05:34:47;;;;;;;40.30;13.50;;;-1.60;99.90;;;;;;4941380;29;20032;-88
2022/01/10 05:37:13;;;;;;;42.83;15.13;;;-1.70;99.90;;;;;;4956401;29;20028;-88
2022/01/10 05:39:38;;;;;;;50.78;15.68;;;-1.70;99.90;;;;;;4957192;28;20029;-87
2022/01/10 05:42:04;;;;;;;60.33;16.23;;;-1.60;99.90;;;;;;4956572;28;20031;-85
2022/01/10 05:44:30;;;;;;;51.53;17.08;;;-1.40;99.90;;;;;;4956252;29;20122;-85
2022/01/10 05:46:59;;;;;;;61.22;17.77;;;-1.20;99.90;;;;;;4956164;29;20117;-85
2022/01/10 05:49:29;;;;;;;62.13;17.17;;;-1.10;99.90;;;;;;4939819;29;20031;-85
2022/01/10 05:51:57;;;;;;;58.08;17.50;;;-1.00;99.90;;;;;;4955844;28;20378;-85
2022/01/10 05:54:36;;;;;;;66.05;16.92;;;-1.10;99.90;;;;;;4954093;29;20031;-85
2022/01/10 05:57:04;;;;;;;62.08;18.65;;;-1.30;99.90;;;;;;4940934;29;20035;-85
2022/01/10 05:59:31;;;;;;;63.92;19.23;;;-1.40;99.90;;;;;;4940212;29;20024;-85
2022/01/10 06:02:00;;;;;;;69.43;18.88;;;-1.40;99.90;;;;;;4940239;29;20028;-85
2022/01/10 06:04:30;;;;;;;77.20;18.83;;;-1.50;99.90;;;;;;4955414;29;20035;-85
2022/01/10 06:06:57;;;;;;;56.53;18.83;;;-1.60;99.90;;;;;;4939887;29;20439;-84
2022/01/10 06:09:24;;;;;;;66.55;18.25;;;-1.60;99.90;;;;;;4955168;29;20443;-85
2022/01/10 06:11:51;;;;;;;69.10;20.38;;;-1.70;99.90;;;;;;4955283;29;20086;-85
2022/01/10 06:14:17;;;;;;;60.30;19.55;;;-1.80;99.90;;;;;;4955066;28;20031;-84
2022/01/10 06:16:43;;;;;;;79.25;21.98;;;-1.90;99.90;;;;;;4954600;29;20078;-87
2022/01/10 06:19:10;;;;;;;74.60;23.13;;;-1.90;99.90;;;;;;4954942;29;20395;-86
2022/01/10 06:21:35;;;;;;;91.03;29.42;;;-1.90;99.90;;;;;;4954720;29;20019;-86
2022/01/10 06:24:03;;;;;;;87.78;29.95;;;-1.80;99.90;;;;;;4938814;29;20027;-86
2022/01/10 06:26:28;;;;;;;87.38;29.98;;;-1.80;99.90;;;;;;4939491;29;20035;-86
2022/01/10 06:28:54;;;;;;;84.38;28.80;;;-1.80;99.90;;;;;;4939448;29;20039;-86
2022/01/10 06:31:24;;;;;;;83.10;26.35;;;-1.80;99.90;;;;;;4955374;29;20039;-86
2022/01/10 06:34:01;;;;;;;86.07;25.90;;;-1.70;99.90;;;;;;4953197;28;20031;-86
2022/01/10 06:36:26;;;;;;;93.22;26.60;;;-1.60;99.90;;;;;;4954986;29;20038;-85
2022/01/10 06:38:53;;;;;;;79.93;28.33;;;-1.30;99.90;;;;;;4939236;29;20054;-85
2022/01/10 06:41:19;;;;;;;91.50;28.77;;;-1.10;99.90;;;;;;4939300;29;20862;-85
2022/01/10 06:43:46;;;;;;;94.13;30.20;;;-1.20;99.90;;;;;;4955029;29;20024;-86
2022/01/10 06:46:13;;;;;;;80.05;28.15;;;-1.20;99.90;;;;;;4939912;29;20063;-85
2022/01/10 06:48:40;;;;;;;91.53;28.13;;;-1.20;99.90;;;;;;4955203;29;20038;-85
2022/01/10 06:51:06;;;;;;;89.60;28.80;;;-1.20;99.90;;;;;;4955662;29;20031;-86
2022/01/10 06:53:33;;;;;;;77.63;28.35;;;-1.20;99.90;;;;;;4956177;29;20435;-86
2022/01/10 06:56:00;;;;;;;81.85;28.27;;;-1.30;99.90;;;;;;4940232;29;20502;-86
2022/01/10 06:58:27;;;;;;;85.22;29.63;;;-1.30;99.90;;;;;;4956022;29;20082;-86
2022/01/10 07:00:53;;;;;;;81.32;29.30;;;-1.20;99.90;;;;;;4955968;29;20035;-85
2022/01/10 07:03:41;;;;;;;99.55;29.83;;;-1.20;99.90;;;;;;4955944;29;20031;-86
2022/01/10 07:06:16;;;;;;;81.15;29.60;;;-1.20;99.90;;;;;;4954205;28;20031;-86
2022/01/10 07:08:42;;;;;;;92.82;29.77;;;-1.20;99.90;;;;;;4954949;28;20043;-85
2022/01/10 07:11:08;;;;;;;95.82;29.30;;;-1.20;99.90;;;;;;4939636;29;20027;-86
2022/01/10 07:13:37;;;;;;;98.82;29.85;;;-1.20;99.90;;;;;;4954748;29;20031;-85
2022/01/10 07:16:05;;;;;;;86.53;29.30;;;-1.10;99.90;;;;;;4939109;29;20038;-85
2022/01/10 07:18:32;;;;;;;85.93;28.48;;;-1.10;99.90;;;;;;4939063;29;20070;-85
2022/01/10 07:21:01;;;;;;;85.75;30.27;;;-1.10;99.90;;;;;;4939122;29;20403;-86
2022/01/10 07:23:27;;;;;;;112.10;33.00;;;-1.10;99.90;;;;;;4954882;29;20031;-86
2022/01/10 07:25:53;;;;;;;85.75;31.88;;;-1.00;99.90;;;;;;4954092;29;20039;-86
2022/01/10 07:28:56;;;;;;;92.43;31.23;;;-1.00;99.90;;;;;;4954602;29;20435;-86
2022/01/10 07:31:21;;;;;;;86.82;27.23;;;-0.90;99.90;;;;;;4938768;29;20067;-86
2022/01/10 07:33:47;;;;;;;78.05;27.25;;;-0.90;99.90;;;;;;4953719;29;20039;-86
2022/01/10 07:36:13;;;;;;;83.93;26.65;;;-0.80;99.90;;;;;;4922703;29;20423;-86
2022/01/10 07:38:39;;;;;;;86.53;25.77;;;-0.70;99.90;;;;;;4954285;29;20483;-86
2022/01/10 07:41:06;;;;;;;99.65;29.50;;;-0.70;99.90;;;;;;4954039;29;20038;-86
2022/01/10 07:43:56;;;;;;;85.32;28.00;;;-0.70;99.90;;;;;;4938013;29;20122;-85
2022/01/10 07:46:22;;;;;;;88.63;27.23;;;-0.70;99.90;;;;;;4954378;29;20032;-86
2022/01/10 07:48:48;;;;;;;73.90;25.30;;;-0.60;99.90;;;;;;4938341;29;20047;-86
2022/01/10 07:51:34;;;;;;;82.32;27.63;;;-0.50;99.90;;;;;;4938477;29;20036;-85
2022/01/10 07:54:00;;;;;;;78.25;26.80;;;-0.50;99.90;;;;;;4954782;29;20044;-86
2022/01/10 07:56:31;;;;;;;90.80;29.05;;;-0.40;99.90;;;;;;4954728;29;20789;-86
2022/01/10 07:58:56;;;;;;;83.68;28.15;;;-0.40;99.90;;;;;;4938269;29;20027;-86
2022/01/10 08:01:22;;;;;;;98.15;30.20;;;-0.30;99.90;;;;;;4953888;29;20031;-86
2022/01/10 08:03:52;;;;;;;99.95;27.73;;;-0.30;99.90;;;;;;4955096;29;20111;-86
2022/01/10 08:06:19;;;;;;;93.95;27.05;;;-0.20;99.90;;;;;;4937318;29;20043;-86
2022/01/10 08:08:44;;;;;;;86.85;28.95;;;-0.20;99.90;;;;;;4937733;29;20150;-86
2022/01/10 08:11:10;;;;;;;89.57;27.27;;;-0.20;99.90;;;;;;4954199;29;20063;-86
2022/01/10 08:13:36;;;;;;;103.05;27.05;;;-0.10;99.90;;;;;;4954630;29;20038;-87
2022/01/10 08:16:02;;;;;;;74.82;26.17;;;-0.10;99.90;;;;;;4954436;29;20094;-86
2022/01/10 08:18:30;;;;;;;93.30;28.85;;;0.00;99.90;;;;;;4938429;29;20067;-85
2022/01/10 08:20:56;;;;;;;84.45;29.88;;;0.10;99.90;;;;;;4954452;29;20031;-86
2022/01/10 08:23:22;;;;;;;109.82;33.92;;;0.10;99.90;;;;;;4938748;29;20038;-85
2022/01/10 08:25:48;;;;;;;91.55;31.42;;;0.10;99.90;;;;;;4956322;29;20027;-85
2022/01/10 08:28:14;;;;;;;110.93;35.60;;;0.10;99.90;;;;;;4954995;29;20126;-85
2022/01/10 08:30:40;;;;;;;82.45;31.40;;;0.10;99.90;;;;;;4954720;29;20038;-85
2022/01/10 08:33:06;;;;;;;93.93;30.17;;;0.10;99.90;;;;;;4939149;29;20074;-86
2022/01/10 08:35:33;;;;;;;80.30;29.67;;;0.20;99.90;;;;;;4938958;29;20436;-85
2022/01/10 08:37:59;;;;;;;94.63;30.15;;;0.20;99.90;;;;;;4954804;28;20023;-86
2022/01/10 08:40:24;;;;;;;95.43;32.85;;;0.20;99.90;;;;;;4957922;28;20031;-86
2022/01/10 08:42:50;;;;;;;96.03;33.42;;;0.20;99.90;;;;;;4958251;29;20046;-86
2022/01/10 08:45:16;;;;;;;115.50;36.00;;;0.30;99.90;;;;;;4958439;29;20039;-85
2022/01/10 08:47:42;;;;;;;91.40;32.38;;;0.30;99.90;;;;;;4958108;29;20125;-86
2022/01/10 08:50:36;;;;;;;88.35;32.72;;;0.40;99.90;;;;;;4957655;29;20507;-86
2022/01/10 08:53:03;;;;;;;80.13;30.55;;;0.40;99.90;;;;;;4959640;29;20035;-86
2022/01/10 08:55:29;;;;;;;86.78;30.83;;;0.50;99.90;;;;;;4941535;29;20039;-85
2022/01/10 08:57:55;;;;;;;83.95;33.13;;;0.50;99.90;;;;;;4957742;29;20115;-86
2022/01/10 09:00:21;;;;;;;91.25;30.98;;;0.60;99.90;;;;;;4956477;29;20035;-86
2022/01/10 09:02:47;;;;;;;103.45;34.28;;;0.70;99.90;;;;;;4940447;29;20044;-85
2022/01/10 09:05:13;;;;;;;90.90;29.75;;;0.70;99.90;;;;;;4956335;29;20502;-85
2022/01/10 09:07:38;;;;;;;98.97;38.05;;;0.80;99.90;;;;;;4940885;29;20369;-86
2022/01/10 09:10:05;;;;;;;153.73;60.83;;;0.90;99.90;;;;;;4956387;29;20043;-86
2022/01/10 09:12:31;;;;;;;102.30;45.92;;;0.90;99.90;;;;;;4940495;29;20399;-85
2022/01/10 09:14:57;;;;;;;91.35;32.53;;;1.00;99.90;;;;;;4940214;29;20043;-86
2022/01/10 09:17:23;;;;;;;76.95;29.58;;;1.00;99.90;;;;;;4940662;29;20386;-85
2022/01/10 09:20:16;;;;;;;90.45;30.45;;;1.10;99.90;;;;;;4940843;29;20039;-86
2022/01/10 09:22:47;;;;;;;76.78;30.50;;;1.20;99.90;;;;;;4956537;29;20083;-86
2022/01/10 09:25:12;;;;;;;84.93;28.90;;;1.20;99.90;;;;;;4941039;29;20102;-85
2022/01/10 09:27:39;;;;;;;77.38;26.50;;;1.30;99.90;;;;;;4940338;29;20031;-85
2022/01/10 09:30:05;;;;;;;81.70;28.63;;;1.40;99.90;;;;;;4940304;29;20133;-85
2022/01/10 09:32:31;;;;;;;80.03;29.27;;;1.50;99.90;;;;;;4956760;29;20122;-85
2022/01/10 09:34:57;;;;;;;74.30;30.58;;;1.60;99.90;;;;;;4955938;29;20551;-85
2022/01/10 09:37:25;;;;;;;71.38;28.58;;;1.80;99.90;;;;;;4956138;29;20039;-86
2022/01/10 09:39:51;;;;;;;86.57;30.15;;;1.80;99.90;;;;;;4956062;29;20046;-86
2022/01/10 09:42:17;;;;;;;270.50;107.63;;;1.90;99.90;;;;;;4955865;29;20039;-87
2022/01/10 09:44:43;;;;;;;85.82;32.30;;;2.00;99.90;;;;;;4940108;29;20491;-85
2022/01/10 09:47:09;;;;;;;68.72;25.85;;;2.10;99.90;;;;;;4955920;29;20182;-85
2022/01/10 09:49:35;;;;;;;77.63;27.50;;;2.20;99.90;;;;;;4955859;28;20070;-86
2022/01/10 09:52:00;;;;;;;51.75;22.83;;;2.30;99.90;;;;;;4955778;29;20035;-86
2022/01/10 09:54:26;;;;;;;56.35;21.63;;;2.40;99.90;;;;;;4939691;29;20380;-86
2022/01/10 09:56:52;;;;;;;46.35;19.95;;;2.50;99.90;;;;;;4956255;29;20043;-84
2022/01/10 09:59:18;;;;;;;55.40;20.25;;;2.60;99.90;;;;;;4939664;29;20031;-87
2022/01/10 10:01:49;;;;;;;48.17;17.80;;;2.90;99.90;;;;;;4955702;29;20086;-86
2022/01/10 10:04:15;;;;;;;41.45;19.58;;;3.00;99.90;;;;;;4939388;29;20031;-85
2022/01/10 10:06:41;;;;;;;162.15;61.53;;;3.10;99.90;;;;;;4955719;28;20023;-86
2022/01/10 10:09:09;;;;;;;45.88;18.98;;;3.10;99.90;;;;;;4955363;29;20376;-86
2022/01/10 10:11:46;;;;;;;39.45;14.15;;;3.10;99.90;;;;;;4939348;29;20567;-85
2022/01/10 10:14:17;;;;;;;36.40;17.23;;;3.20;99.90;;;;;;4955981;29;20118;-85
2022/01/10 10:16:49;;;;;;;38.70;14.50;;;3.40;99.90;;;;;;4939571;29;20034;-85
2022/01/10 10:19:16;;;;;;;44.88;16.80;;;3.40;99.90;;;;;;4955534;29;20038;-85
2022/01/10 10:21:42;;;;;;;55.08;19.25;;;3.50;99.90;;;;;;4939317;29;20035;-85
2022/01/10 10:24:08;;;;;;;52.50;20.35;;;3.60;99.90;;;;;;4939100;29;20554;-85
2022/01/10 10:26:33;;;;;;;41.50;16.42;;;3.50;99.90;;;;;;4955270;29;20086;-85
2022/01/10 10:29:00;;;;;;;28.08;13.95;;;3.50;99.90;;;;;;4955210;28;20085;-85
2022/01/10 10:31:37;;;;;;;48.22;14.68;;;3.30;99.90;;;;;;4939014;29;20039;-86
2022/01/10 10:34:04;;;;;;;31.95;12.18;;;3.10;99.90;;;;;;4939215;29;20082;-86
2022/01/10 10:36:36;;;;;;;38.13;16.25;;;3.20;99.90;;;;;;4938936;29;20031;-85
2022/01/10 10:39:07;;;;;;;35.63;17.58;;;3.30;99.90;;;;;;4939117;29;20038;-85
2022/01/10 10:41:37;;;;;;;40.60;14.23;;;3.30;99.90;;;;;;4954908;29;20510;-85
2022/01/10 10:44:04;;;;;;;42.22;15.05;;;3.20;99.90;;;;;;4939001;29;20492;-86
2022/01/10 10:46:30;;;;;;;42.33;18.90;;;3.20;99.90;;;;;;4938954;29;20395;-86
2022/01/10 10:49:03;;;;;;;41.17;16.25;;;3.40;99.90;;;;;;4954198;29;20090;-86
2022/01/10 10:51:38;;;;;;;29.50;14.30;;;3.40;99.90;;;;;;4938517;29;20582;-87
2022/01/10 10:54:07;;;;;;;30.00;13.25;;;3.50;99.90;;;;;;4954635;29;20040;-86
2022/01/10 10:56:35;;;;;;;37.38;14.50;;;3.50;99.90;;;;;;4939786;29;20134;-86
2022/01/10 10:59:01;;;;;;;39.47;16.95;;;3.60;99.90;;;;;;4907603;29;20399;-86
2022/01/10 11:01:27;;;;;;;40.10;18.52;;;3.60;99.90;;;;;;4938651;29;20043;-89
2022/01/10 11:03:53;;;;;;;33.47;17.92;;;3.70;99.90;;;;;;4939387;29;20464;-88
2022/01/10 11:06:32;;;;;;;41.92;17.33;;;3.60;99.90;;;;;;4956134;29;20031;-85
2022/01/10 11:09:05;;;;;;;36.60;14.63;;;3.70;99.90;;;;;;4954414;29;20364;-86
2022/01/10 11:11:31;;;;;;;43.63;15.45;;;3.90;99.90;;;;;;4938495;29;20039;-86
2022/01/10 11:13:58;;;;;;;34.30;13.40;;;3.90;99.90;;;;;;4954335;28;20034;-85
2022/01/10 11:16:25;;;;;;;34.25;13.68;;;3.90;99.90;;;;;;4938056;29;20034;-85
2022/01/10 11:18:51;;;;;;;32.60;14.70;;;3.90;99.90;;;;;;4938312;29;20098;-86
2022/01/10 11:21:17;;;;;;;31.10;14.00;;;3.90;99.90;;;;;;4940395;28;20054;-86
2022/01/10 11:23:45;;;;;;;42.03;13.70;;;3.80;99.90;;;;;;4937941;29;20046;-86
2022/01/10 11:26:15;;;;;;;29.50;12.13;;;3.60;99.90;;;;;;4938070;29;20151;-86
2022/01/10 11:29:02;;;;;;;24.50;12.27;;;3.70;99.90;;;;;;4938037;28;20038;-86
2022/01/10 11:31:28;;;;;;;29.60;11.30;;;3.90;99.90;;;;;;4938143;29;20035;-85
2022/01/10 11:33:57;;;;;;;24.23;10.75;;;4.00;99.90;;;;;;4953981;29;20066;-85
2022/01/10 11:36:25;;;;;;;38.33;15.00;;;4.00;99.90;;;;;;4938035;29;20042;-85
2022/01/10 11:38:57;;;;;;;32.28;14.88;;;3.80;99.90;;;;;;4938111;29;20050;-86
2022/01/10 11:41:32;;;;;;;33.88;16.20;;;3.50;99.90;;;;;;4954041;29;20036;-85
2022/01/10 11:44:11;;;;;;;30.02;14.38;;;3.40;99.90;;;;;;4953908;29;20043;-85
2022/01/10 11:46:49;;;;;;;38.75;13.02;;;3.20;99.90;;;;;;4937850;29;20039;-86
2022/01/10 11:49:17;;;;;;;36.90;12.73;;;3.00;99.90;;;;;;4938080;29;20086;-86
2022/01/10 11:51:59;;;;;;;34.47;12.60;;;3.00;99.90;;;;;;4937547;29;20046;-85
2022/01/10 11:54:41;;;;;;;;;;;3.00;99.90;;;;;;4938391;29;20126;-85
2022/01/10 11:57:12;;;;;;;33.58;13.93;;;2.80;99.90;;;;;;4937902;29;19910;-85
2022/01/10 11:59:53;;;;;;;32.40;14.13;;;2.70;99.90;;;;;;4938099;29;20042;-86
2022/01/10 12:02:20;;;;;;;;;;;2.70;99.90;;;;;;4938484;29;20049;-86
2022/01/10 12:04:49;;;;;;;51.40;15.13;;;2.70;99.90;;;;;;4937819;29;20392;-85
2022/01/10 12:07:17;;;;;;;35.22;14.32;;;2.70;99.90;;;;;;4938052;29;20086;-85
2022/01/10 12:09:46;;;;;;;44.45;15.60;;;2.60;99.90;;;;;;4938098;29;20394;-86
2022/01/10 12:12:14;;;;;;;38.47;15.25;;;2.60;99.90;;;;;;4938369;28;20078;-85
2022/01/10 12:14:44;;;;;;;46.35;15.70;;;2.60;99.90;;;;;;4939862;29;20063;-86
2022/01/10 12:17:11;;;;;;;37.13;13.15;;;2.50;99.90;;;;;;4941681;29;20479;-85
2022/01/10 12:19:39;;;;;;;30.65;12.68;;;2.50;99.90;;;;;;4957409;29;20462;-85
2022/01/10 12:22:06;;;;;;;32.92;11.95;;;2.40;99.90;;;;;;4941377;29;20054;-85
2022/01/10 12:24:38;;;;;;;38.42;13.52;;;2.40;99.90;;;;;;4941380;29;20038;-85
2022/01/10 12:27:04;;;;;;;;;;;2.40;99.90;;;;;;4941692;29;20038;-85
2022/01/10 12:29:31;;;;;;;30.00;11.18;;;2.30;99.90;;;;;;4941597;29;19925;-85
2022/01/10 12:31:58;;;;;;;43.10;12.40;;;2.20;99.90;;;;;;4958190;29;20049;-85
2022/01/10 12:34:25;;;;;;;36.35;12.90;;;2.20;99.90;;;;;;4956810;29;20062;-85
2022/01/10 12:36:51;;;;;;;34.03;13.15;;;2.20;99.90;;;;;;4957103;29;20023;-85
2022/01/10 12:39:28;;;;;;;34.10;13.50;;;2.20;99.90;;;;;;4956760;29;20658;-85
2022/01/10 12:41:56;;;;;;;37.30;12.23;;;2.30;99.90;;;;;;4956559;29;20043;-85
2022/01/10 12:44:23;;;;;;;25.95;9.13;;;2.30;99.90;;;;;;4940213;29;20127;-85
2022/01/10 12:46:49;;;;;;;31.85;10.52;;;2.40;99.90;;;;;;4956207;29;20074;-85
2022/01/10 12:49:22;;;;;;;21.98;9.02;;;2.40;99.90;;;;;;4956285;28;20491;-85